sensor_id;sensor_type;location;lat;lon;timestamp;P1;durP1;ratioP1;P2;durP2;ratioP2
74945;SDS011;63509;45.250;38.102;2023-02-11T00:00:14;19.88;;;10.73;;
74945;SDS011;63509;45.250;38.102;2023-02-11T00:02:41;24.30;;;14.45;;
74945;SDS011;63509;45.250;38.102;2023-02-11T00:05:06;19.08;;;10.77;;
74945;SDS011;63509;45.250;38.102;2023-02-11T00:07:33;23.48;;;14.27;;
74945;SDS011;63509;45.250;38.102;2023-02-11T00:09:59;24.50;;;13.80;;
74945;SDS011;63509;45.250;38.102;2023-02-11T00:12:27;23.73;;;13.68;;
74945;SDS011;63509;45.250;38.102;2023-02-11T00:14:53;26.58;;;16.08;;
74945;SDS011;63509;45.250;38.102;2023-02-11T00:17:20;24.13;;;13.80;;
74945;SDS011;63509;45.250;38.102;2023-02-11T00:19:49;35.63;;;14.65;;
74945;SDS011;63509;45.250;38.102;2023-02-11T00:22:16;25.48;;;12.45;;
74945;SDS011;63509;45.250;38.102;2023-02-11T00:24:43;31.85;;;16.05;;
74945;SDS011;63509;45.250;38.102;2023-02-11T00:27:09;16.25;;;11.00;;
74945;SDS011;63509;45.250;38.102;2023-02-11T00:29:35;27.08;;;11.85;;
74945;SDS011;63509;45.250;38.102;2023-02-11T00:32:02;25.77;;;15.13;;
74945;SDS011;63509;45.250;38.102;2023-02-11T00:34:33;27.30;;;13.15;;
74945;SDS011;63509;45.250;38.102;2023-02-11T00:37:01;17.13;;;10.93;;
74945;SDS011;63509;45.250;38.102;2023-02-11T00:39:27;27.80;;;15.02;;
74945;SDS011;63509;45.250;38.102;2023-02-11T00:41:54;31.50;;;14.73;;
74945;SDS011;63509;45.250;38.102;2023-02-11T00:44:20;19.75;;;13.27;;
74945;SDS011;63509;45.250;38.102;2023-02-11T00:46:46;25.33;;;14.65;;
74945;SDS011;63509;45.250;38.102;2023-02-11T00:49:12;25.70;;;14.15;;
74945;SDS011;63509;45.250;38.102;2023-02-11T00:51:40;33.90;;;15.10;;
74945;SDS011;63509;45.250;38.102;2023-02-11T00:54:06;30.38;;;15.63;;
74945;SDS011;63509;45.250;38.102;2023-02-11T00:56:32;23.70;;;13.70;;
74945;SDS011;63509;45.250;38.102;2023-02-11T00:58:59;28.77;;;14.95;;
74945;SDS011;63509;45.250;38.102;2023-02-11T01:01:25;20.08;;;14.27;;
74945;SDS011;63509;45.250;38.102;2023-02-11T01:03:51;26.35;;;13.18;;
74945;SDS011;63509;45.250;38.102;2023-02-11T01:06:17;32.22;;;18.05;;
74945;SDS011;63509;45.250;38.102;2023-02-11T01:08:43;26.80;;;16.48;;
74945;SDS011;63509;45.250;38.102;2023-02-11T01:11:14;31.48;;;15.52;;
74945;SDS011;63509;45.250;38.102;2023-02-11T01:13:43;20.17;;;13.18;;
74945;SDS011;63509;45.250;38.102;2023-02-11T01:16:10;37.88;;;16.83;;
74945;SDS011;63509;45.250;38.102;2023-02-11T01:18:37;22.88;;;14.15;;
74945;SDS011;63509;45.250;38.102;2023-02-11T01:21:03;25.55;;;14.73;;
74945;SDS011;63509;45.250;38.102;2023-02-11T01:23:29;26.50;;;14.57;;
74945;SDS011;63509;45.250;38.102;2023-02-11T01:25:55;28.27;;;16.20;;
74945;SDS011;63509;45.250;38.102;2023-02-11T01:28:23;28.52;;;14.38;;
74945;SDS011;63509;45.250;38.102;2023-02-11T01:30:51;31.67;;;15.00;;
74945;SDS011;63509;45.250;38.102;2023-02-11T01:33:17;21.58;;;12.40;;
74945;SDS011;63509;45.250;38.102;2023-02-11T01:35:44;31.15;;;15.88;;
74945;SDS011;63509;45.250;38.102;2023-02-11T01:38:17;28.35;;;16.10;;
74945;SDS011;63509;45.250;38.102;2023-02-11T01:40:46;21.40;;;13.20;;
74945;SDS011;63509;45.250;38.102;2023-02-11T01:43:17;34.78;;;15.40;;
74945;SDS011;63509;45.250;38.102;2023-02-11T01:48:11;22.92;;;12.00;;
74945;SDS011;63509;45.250;38.102;2023-02-11T01:50:43;21.77;;;14.57;;
74945;SDS011;63509;45.250;38.102;2023-02-11T01:53:13;25.10;;;16.13;;
74945;SDS011;63509;45.250;38.102;2023-02-11T01:55:59;22.90;;;13.23;;
74945;SDS011;63509;45.250;38.102;2023-02-11T01:58:44;21.75;;;12.93;;
74945;SDS011;63509;45.250;38.102;2023-02-11T02:01:13;28.80;;;15.48;;
74945;SDS011;63509;45.250;38.102;2023-02-11T02:03:43;29.30;;;14.10;;
74945;SDS011;63509;45.250;38.102;2023-02-11T02:06:18;25.35;;;14.43;;
74945;SDS011;63509;45.250;38.102;2023-02-11T02:09:08;41.95;;;14.43;;
74945;SDS011;63509;45.250;38.102;2023-02-11T02:11:41;21.10;;;12.68;;
74945;SDS011;63509;45.250;38.102;2023-02-11T02:14:07;29.63;;;14.73;;
74945;SDS011;63509;45.250;38.102;2023-02-11T02:16:33;28.48;;;15.55;;
74945;SDS011;63509;45.250;38.102;2023-02-11T02:36:53;25.33;;;15.48;;
74945;SDS011;63509;45.250;38.102;2023-02-11T02:41:27;23.77;;;13.18;;
74945;SDS011;63509;45.250;38.102;2023-02-11T02:43:56;29.05;;;15.10;;
74945;SDS011;63509;45.250;38.102;2023-02-11T02:46:24;23.58;;;13.25;;
74945;SDS011;63509;45.250;38.102;2023-02-11T02:51:27;22.52;;;12.60;;
74945;SDS011;63509;45.250;38.102;2023-02-11T02:59:26;30.42;;;15.35;;
74945;SDS011;63509;45.250;38.102;2023-02-11T03:10:30;31.20;;;16.50;;
74945;SDS011;63509;45.250;38.102;2023-02-11T03:12:54;28.70;;;16.63;;
74945;SDS011;63509;45.250;38.102;2023-02-11T03:15:22;36.28;;;16.55;;
74945;SDS011;63509;45.250;38.102;2023-02-11T03:17:52;28.60;;;17.60;;
74945;SDS011;63509;45.250;38.102;2023-02-11T03:20:23;29.73;;;16.13;;
74945;SDS011;63509;45.250;38.102;2023-02-11T03:23:05;30.80;;;17.02;;
74945;SDS011;63509;45.250;38.102;2023-02-11T03:25:52;27.65;;;15.82;;
74945;SDS011;63509;45.250;38.102;2023-02-11T03:28:43;30.92;;;15.15;;
74945;SDS011;63509;45.250;38.102;2023-02-11T03:31:21;28.23;;;13.10;;
74945;SDS011;63509;45.250;38.102;2023-02-11T03:33:54;27.25;;;17.90;;
74945;SDS011;63509;45.250;38.102;2023-02-11T03:36:48;26.73;;;15.00;;
74945;SDS011;63509;45.250;38.102;2023-02-11T03:39:13;25.27;;;13.25;;
74945;SDS011;63509;45.250;38.102;2023-02-11T03:41:45;23.58;;;14.27;;
74945;SDS011;63509;45.250;38.102;2023-02-11T03:44:13;24.50;;;15.20;;
74945;SDS011;63509;45.250;38.102;2023-02-11T03:46:42;24.88;;;13.68;;
74945;SDS011;63509;45.250;38.102;2023-02-11T03:49:13;26.88;;;13.88;;
74945;SDS011;63509;45.250;38.102;2023-02-11T03:51:44;28.05;;;16.13;;
74945;SDS011;63509;45.250;38.102;2023-02-11T03:54:13;34.08;;;15.57;;
74945;SDS011;63509;45.250;38.102;2023-02-11T03:56:53;34.92;;;16.33;;
74945;SDS011;63509;45.250;38.102;2023-02-11T03:59:21;35.15;;;19.45;;
74945;SDS011;63509;45.250;38.102;2023-02-11T04:01:47;42.70;;;19.58;;
74945;SDS011;63509;45.250;38.102;2023-02-11T04:04:14;47.00;;;20.05;;
74945;SDS011;63509;45.250;38.102;2023-02-11T04:06:40;50.63;;;19.00;;
74945;SDS011;63509;45.250;38.102;2023-02-11T04:09:06;44.65;;;21.95;;
74945;SDS011;63509;45.250;38.102;2023-02-11T04:11:33;35.42;;;18.13;;
74945;SDS011;63509;45.250;38.102;2023-02-11T04:13:59;33.20;;;16.92;;
74945;SDS011;63509;45.250;38.102;2023-02-11T04:16:25;25.55;;;11.75;;
74945;SDS011;63509;45.250;38.102;2023-02-11T04:18:53;32.75;;;13.30;;
74945;SDS011;63509;45.250;38.102;2023-02-11T04:21:20;22.67;;;14.77;;
74945;SDS011;63509;45.250;38.102;2023-02-11T04:23:46;21.48;;;14.13;;
74945;SDS011;63509;45.250;38.102;2023-02-11T04:26:12;20.83;;;12.35;;
74945;SDS011;63509;45.250;38.102;2023-02-11T04:28:38;30.83;;;13.55;;
74945;SDS011;63509;45.250;38.102;2023-02-11T04:31:04;25.63;;;14.48;;
74945;SDS011;63509;45.250;38.102;2023-02-11T04:33:30;27.33;;;14.63;;
74945;SDS011;63509;45.250;38.102;2023-02-11T04:35:56;22.35;;;12.88;;
74945;SDS011;63509;45.250;38.102;2023-02-11T04:38:22;28.02;;;14.77;;
74945;SDS011;63509;45.250;38.102;2023-02-11T04:40:48;30.10;;;14.43;;
74945;SDS011;63509;45.250;38.102;2023-02-11T04:43:16;32.10;;;15.48;;
74945;SDS011;63509;45.250;38.102;2023-02-11T04:45:42;23.20;;;13.50;;
74945;SDS011;63509;45.250;38.102;2023-02-11T04:48:08;29.02;;;17.35;;
74945;SDS011;63509;45.250;38.102;2023-02-11T04:50:34;26.27;;;13.90;;
74945;SDS011;63509;45.250;38.102;2023-02-11T04:53:00;28.75;;;14.25;;
74945;SDS011;63509;45.250;38.102;2023-02-11T04:55:26;24.00;;;13.88;;
74945;SDS011;63509;45.250;38.102;2023-02-11T04:57:52;28.33;;;13.00;;
74945;SDS011;63509;45.250;38.102;2023-02-11T05:00:19;28.63;;;15.80;;
74945;SDS011;63509;45.250;38.102;2023-02-11T05:02:45;25.17;;;14.20;;
74945;SDS011;63509;45.250;38.102;2023-02-11T05:05:11;25.63;;;11.48;;
74945;SDS011;63509;45.250;38.102;2023-02-11T05:07:37;28.08;;;16.05;;
74945;SDS011;63509;45.250;38.102;2023-02-11T05:10:03;19.98;;;12.32;;
74945;SDS011;63509;45.250;38.102;2023-02-11T05:12:30;34.58;;;15.77;;
74945;SDS011;63509;45.250;38.102;2023-02-11T05:14:55;29.38;;;16.67;;
74945;SDS011;63509;45.250;38.102;2023-02-11T05:17:21;35.40;;;18.65;;
74945;SDS011;63509;45.250;38.102;2023-02-11T05:19:47;37.45;;;19.75;;
74945;SDS011;63509;45.250;38.102;2023-02-11T05:22:14;38.47;;;18.63;;
74945;SDS011;63509;45.250;38.102;2023-02-11T05:24:40;32.78;;;18.55;;
74945;SDS011;63509;45.250;38.102;2023-02-11T05:27:06;39.85;;;19.02;;
74945;SDS011;63509;45.250;38.102;2023-02-11T05:29:32;34.33;;;18.63;;
74945;SDS011;63509;45.250;38.102;2023-02-11T05:31:58;36.58;;;23.17;;
74945;SDS011;63509;45.250;38.102;2023-02-11T05:34:25;39.65;;;16.15;;
74945;SDS011;63509;45.250;38.102;2023-02-11T05:36:51;31.02;;;17.80;;
74945;SDS011;63509;45.250;38.102;2023-02-11T05:39:17;25.38;;;14.48;;
74945;SDS011;63509;45.250;38.102;2023-02-11T05:41:44;27.63;;;13.52;;
74945;SDS011;63509;45.250;38.102;2023-02-11T05:44:10;24.55;;;14.30;;
74945;SDS011;63509;45.250;38.102;2023-02-11T05:46:36;24.75;;;14.73;;
74945;SDS011;63509;45.250;38.102;2023-02-11T05:49:03;30.52;;;15.02;;
74945;SDS011;63509;45.250;38.102;2023-02-11T05:51:29;31.88;;;14.65;;
74945;SDS011;63509;45.250;38.102;2023-02-11T05:53:55;28.35;;;14.82;;
74945;SDS011;63509;45.250;38.102;2023-02-11T05:56:21;27.27;;;16.48;;
74945;SDS011;63509;45.250;38.102;2023-02-11T05:58:47;25.08;;;13.43;;
74945;SDS011;63509;45.250;38.102;2023-02-11T06:01:13;27.02;;;15.18;;
74945;SDS011;63509;45.250;38.102;2023-02-11T06:03:39;31.80;;;15.45;;
74945;SDS011;63509;45.250;38.102;2023-02-11T06:06:08;24.77;;;14.52;;
74945;SDS011;63509;45.250;38.102;2023-02-11T06:08:36;28.45;;;15.38;;
74945;SDS011;63509;45.250;38.102;2023-02-11T06:11:02;25.55;;;14.82;;
74945;SDS011;63509;45.250;38.102;2023-02-11T06:13:28;26.10;;;12.15;;
74945;SDS011;63509;45.250;38.102;2023-02-11T06:15:54;23.58;;;13.35;;
74945;SDS011;63509;45.250;38.102;2023-02-11T06:18:23;23.75;;;13.50;;
74945;SDS011;63509;45.250;38.102;2023-02-11T06:20:50;26.98;;;15.48;;
74945;SDS011;63509;45.250;38.102;2023-02-11T06:23:16;27.38;;;13.95;;
74945;SDS011;63509;45.250;38.102;2023-02-11T06:25:42;24.63;;;13.00;;
74945;SDS011;63509;45.250;38.102;2023-02-11T06:28:08;23.48;;;13.95;;
74945;SDS011;63509;45.250;38.102;2023-02-11T06:30:35;22.30;;;11.27;;
74945;SDS011;63509;45.250;38.102;2023-02-11T06:33:03;35.05;;;15.20;;
74945;SDS011;63509;45.250;38.102;2023-02-11T06:35:29;25.40;;;13.82;;
74945;SDS011;63509;45.250;38.102;2023-02-11T06:37:58;26.55;;;13.77;;
74945;SDS011;63509;45.250;38.102;2023-02-11T06:40:23;23.15;;;12.52;;
74945;SDS011;63509;45.250;38.102;2023-02-11T06:42:49;23.65;;;11.68;;
74945;SDS011;63509;45.250;38.102;2023-02-11T06:45:15;15.95;;;10.45;;
74945;SDS011;63509;45.250;38.102;2023-02-11T06:47:42;23.55;;;12.88;;
74945;SDS011;63509;45.250;38.102;2023-02-11T06:50:09;23.83;;;12.68;;
74945;SDS011;63509;45.250;38.102;2023-02-11T06:52:36;26.73;;;12.75;;
74945;SDS011;63509;45.250;38.102;2023-02-11T06:55:03;23.05;;;12.15;;
74945;SDS011;63509;45.250;38.102;2023-02-11T06:57:29;26.48;;;13.52;;
74945;SDS011;63509;45.250;38.102;2023-02-11T06:59:56;31.15;;;16.10;;
74945;SDS011;63509;45.250;38.102;2023-02-11T07:02:25;26.60;;;14.90;;
74945;SDS011;63509;45.250;38.102;2023-02-11T07:04:51;25.23;;;13.45;;
74945;SDS011;63509;45.250;38.102;2023-02-11T07:07:17;22.15;;;14.10;;
74945;SDS011;63509;45.250;38.102;2023-02-11T07:09:43;25.85;;;14.40;;
74945;SDS011;63509;45.250;38.102;2023-02-11T07:12:09;33.10;;;14.57;;
74945;SDS011;63509;45.250;38.102;2023-02-11T07:14:35;26.25;;;14.40;;
74945;SDS011;63509;45.250;38.102;2023-02-11T07:17:02;30.83;;;16.25;;
74945;SDS011;63509;45.250;38.102;2023-02-11T07:19:29;31.73;;;15.23;;
74945;SDS011;63509;45.250;38.102;2023-02-11T07:21:55;36.35;;;14.75;;
74945;SDS011;63509;45.250;38.102;2023-02-11T07:24:21;34.88;;;13.95;;
74945;SDS011;63509;45.250;38.102;2023-02-11T07:26:47;26.65;;;14.32;;
74945;SDS011;63509;45.250;38.102;2023-02-11T07:31:42;24.27;;;12.93;;
74945;SDS011;63509;45.250;38.102;2023-02-11T07:34:08;21.20;;;12.55;;
74945;SDS011;63509;45.250;38.102;2023-02-11T07:36:35;27.25;;;14.65;;
74945;SDS011;63509;45.250;38.102;2023-02-11T07:39:02;30.50;;;13.55;;
74945;SDS011;63509;45.250;38.102;2023-02-11T07:41:28;32.15;;;14.18;;
74945;SDS011;63509;45.250;38.102;2023-02-11T07:43:57;31.15;;;14.27;;
74945;SDS011;63509;45.250;38.102;2023-02-11T07:46:46;27.25;;;14.98;;
74945;SDS011;63509;45.250;38.102;2023-02-11T07:49:13;29.38;;;12.10;;
74945;SDS011;63509;45.250;38.102;2023-02-11T07:51:40;23.08;;;13.27;;
74945;SDS011;63509;45.250;38.102;2023-02-11T07:54:06;30.33;;;15.15;;
74945;SDS011;63509;45.250;38.102;2023-02-11T07:56:32;26.42;;;14.75;;
74945;SDS011;63509;45.250;38.102;2023-02-11T07:58:59;27.13;;;13.80;;
74945;SDS011;63509;45.250;38.102;2023-02-11T08:01:28;20.42;;;11.20;;
74945;SDS011;63509;45.250;38.102;2023-02-11T08:03:55;22.95;;;11.95;;
74945;SDS011;63509;45.250;38.102;2023-02-11T08:06:23;20.73;;;12.45;;
74945;SDS011;63509;45.250;38.102;2023-02-11T08:08:50;22.95;;;11.18;;
74945;SDS011;63509;45.250;38.102;2023-02-11T08:11:17;25.15;;;11.20;;
74945;SDS011;63509;45.250;38.102;2023-02-11T08:13:52;22.35;;;10.40;;
74945;SDS011;63509;45.250;38.102;2023-02-11T08:16:20;17.77;;;10.10;;
74945;SDS011;63509;45.250;38.102;2023-02-11T08:18:58;22.42;;;10.10;;
74945;SDS011;63509;45.250;38.102;2023-02-11T08:21:26;17.95;;;10.23;;
74945;SDS011;63509;45.250;38.102;2023-02-11T08:23:53;20.98;;;11.27;;
74945;SDS011;63509;45.250;38.102;2023-02-11T08:26:20;19.10;;;11.15;;
74945;SDS011;63509;45.250;38.102;2023-02-11T08:28:51;25.73;;;11.95;;
74945;SDS011;63509;45.250;38.102;2023-02-11T08:31:21;20.02;;;10.90;;
74945;SDS011;63509;45.250;38.102;2023-02-11T08:33:49;23.65;;;10.75;;
74945;SDS011;63509;45.250;38.102;2023-02-11T08:36:23;21.63;;;9.98;;
74945;SDS011;63509;45.250;38.102;2023-02-11T08:38:57;21.67;;;10.73;;
74945;SDS011;63509;45.250;38.102;2023-02-11T08:41:27;17.60;;;9.38;;
74945;SDS011;63509;45.250;38.102;2023-02-11T08:43:54;17.75;;;9.48;;
74945;SDS011;63509;45.250;38.102;2023-02-11T08:46:20;18.55;;;9.65;;
74945;SDS011;63509;45.250;38.102;2023-02-11T08:48:46;25.10;;;11.57;;
74945;SDS011;63509;45.250;38.102;2023-02-11T08:51:18;18.67;;;9.93;;
74945;SDS011;63509;45.250;38.102;2023-02-11T08:53:46;23.02;;;11.07;;
74945;SDS011;63509;45.250;38.102;2023-02-11T08:56:13;19.30;;;10.02;;
74945;SDS011;63509;45.250;38.102;2023-02-11T08:58:41;21.17;;;10.35;;
74945;SDS011;63509;45.250;38.102;2023-02-11T09:01:15;16.90;;;9.23;;
74945;SDS011;63509;45.250;38.102;2023-02-11T09:06:16;15.02;;;7.90;;
74945;SDS011;63509;45.250;38.102;2023-02-11T09:08:43;13.38;;;8.18;;
74945;SDS011;63509;45.250;38.102;2023-02-11T09:11:11;17.90;;;8.90;;
74945;SDS011;63509;45.250;38.102;2023-02-11T09:13:39;15.18;;;8.23;;
74945;SDS011;63509;45.250;38.102;2023-02-11T09:16:06;13.35;;;5.65;;
74945;SDS011;63509;45.250;38.102;2023-02-11T09:18:33;20.85;;;8.23;;
74945;SDS011;63509;45.250;38.102;2023-02-11T09:21:04;16.00;;;8.13;;
74945;SDS011;63509;45.250;38.102;2023-02-11T09:23:32;16.80;;;8.13;;
74945;SDS011;63509;45.250;38.102;2023-02-11T09:25:59;15.60;;;7.88;;
74945;SDS011;63509;45.250;38.102;2023-02-11T09:28:46;16.95;;;8.55;;
74945;SDS011;63509;45.250;38.102;2023-02-11T09:31:15;14.63;;;7.72;;
74945;SDS011;63509;45.250;38.102;2023-02-11T09:33:44;16.35;;;8.02;;
74945;SDS011;63509;45.250;38.102;2023-02-11T09:36:18;18.90;;;8.73;;
74945;SDS011;63509;45.250;38.102;2023-02-11T09:39:04;15.32;;;7.50;;
74945;SDS011;63509;45.250;38.102;2023-02-11T09:42:23;14.07;;;8.00;;
74945;SDS011;63509;45.250;38.102;2023-02-11T09:44:30;14.65;;;8.38;;
74945;SDS011;63509;45.250;38.102;2023-02-11T09:47:05;17.05;;;8.13;;
74945;SDS011;63509;45.250;38.102;2023-02-11T09:50:04;14.82;;;7.35;;
74945;SDS011;63509;45.250;38.102;2023-02-11T09:52:38;14.77;;;7.78;;
74945;SDS011;63509;45.250;38.102;2023-02-11T09:55:18;16.25;;;7.88;;
74945;SDS011;63509;45.250;38.102;2023-02-11T09:57:47;13.60;;;7.22;;
74945;SDS011;63509;45.250;38.102;2023-02-11T10:00:21;12.57;;;6.47;;
74945;SDS011;63509;45.250;38.102;2023-02-11T10:22:51;20.40;;;9.07;;
74945;SDS011;63509;45.250;38.102;2023-02-11T10:27:51;10.43;;;6.57;;
74945;SDS011;63509;45.250;38.102;2023-02-11T10:30:25;15.30;;;6.38;;
74945;SDS011;63509;45.250;38.102;2023-02-11T10:33:06;13.50;;;7.07;;
74945;SDS011;63509;45.250;38.102;2023-02-11T10:35:39;14.65;;;5.85;;
74945;SDS011;63509;45.250;38.102;2023-02-11T10:38:08;13.15;;;7.13;;
74945;SDS011;63509;45.250;38.102;2023-02-11T10:40:35;20.55;;;12.07;;
74945;SDS011;63509;45.250;38.102;2023-02-11T10:43:03;17.88;;;7.50;;
74945;SDS011;63509;45.250;38.102;2023-02-11T10:45:40;17.83;;;7.32;;
74945;SDS011;63509;45.250;38.102;2023-02-11T10:51:07;16.75;;;7.55;;
74945;SDS011;63509;45.250;38.102;2023-02-11T10:53:40;14.82;;;7.00;;
74945;SDS011;63509;45.250;38.102;2023-02-11T10:56:07;13.55;;;5.78;;
74945;SDS011;63509;45.250;38.102;2023-02-11T10:58:57;14.32;;;6.93;;
74945;SDS011;63509;45.250;38.102;2023-02-11T11:07:18;16.58;;;6.43;;
74945;SDS011;63509;45.250;38.102;2023-02-11T11:15:00;16.75;;;5.18;;
74945;SDS011;63509;45.250;38.102;2023-02-11T11:17:38;12.50;;;6.82;;
74945;SDS011;63509;45.250;38.102;2023-02-11T11:20:14;11.68;;;6.35;;
74945;SDS011;63509;45.250;38.102;2023-02-11T11:22:45;12.93;;;6.20;;
74945;SDS011;63509;45.250;38.102;2023-02-11T11:25:23;15.52;;;6.80;;
74945;SDS011;63509;45.250;38.102;2023-02-11T11:27:55;10.77;;;7.20;;
74945;SDS011;63509;45.250;38.102;2023-02-11T11:30:30;9.82;;;5.15;;
74945;SDS011;63509;45.250;38.102;2023-02-11T11:33:04;12.15;;;5.70;;
74945;SDS011;63509;45.250;38.102;2023-02-11T11:36:21;12.57;;;5.95;;
74945;SDS011;63509;45.250;38.102;2023-02-11T11:38:43;10.82;;;5.75;;
74945;SDS011;63509;45.250;38.102;2023-02-11T11:43:58;10.65;;;6.60;;
74945;SDS011;63509;45.250;38.102;2023-02-11T11:46:41;10.98;;;5.72;;
74945;SDS011;63509;45.250;38.102;2023-02-11T11:49:31;9.50;;;5.05;;
74945;SDS011;63509;45.250;38.102;2023-02-11T11:52:23;10.00;;;4.90;;
74945;SDS011;63509;45.250;38.102;2023-02-11T11:54:58;10.57;;;4.93;;
74945;SDS011;63509;45.250;38.102;2023-02-11T11:57:32;9.73;;;5.38;;
74945;SDS011;63509;45.250;38.102;2023-02-11T12:00:03;10.57;;;6.00;;
74945;SDS011;63509;45.250;38.102;2023-02-11T12:02:40;10.13;;;5.38;;
74945;SDS011;63509;45.250;38.102;2023-02-11T12:08:13;9.07;;;4.35;;
74945;SDS011;63509;45.250;38.102;2023-02-11T12:11:12;9.18;;;5.00;;
74945;SDS011;63509;45.250;38.102;2023-02-11T12:24:22;8.95;;;5.63;;
74945;SDS011;63509;45.250;38.102;2023-02-11T12:42:46;9.40;;;4.95;;
74945;SDS011;63509;45.250;38.102;2023-02-11T12:45:48;7.70;;;4.70;;
74945;SDS011;63509;45.250;38.102;2023-02-11T12:53:45;7.93;;;4.40;;
74945;SDS011;63509;45.250;38.102;2023-02-11T12:58:54;7.68;;;3.65;;
74945;SDS011;63509;45.250;38.102;2023-02-11T13:01:28;7.03;;;3.47;;
74945;SDS011;63509;45.250;38.102;2023-02-11T13:06:39;8.18;;;3.85;;
74945;SDS011;63509;45.250;38.102;2023-02-11T13:09:14;11.13;;;3.60;;
74945;SDS011;63509;45.250;38.102;2023-02-11T13:11:47;14.75;;;3.95;;
74945;SDS011;63509;45.250;38.102;2023-02-11T13:16:59;8.00;;;4.45;;
74945;SDS011;63509;45.250;38.102;2023-02-11T13:19:40;15.00;;;3.72;;
74945;SDS011;63509;45.250;38.102;2023-02-11T13:22:26;8.30;;;4.00;;
74945;SDS011;63509;45.250;38.102;2023-02-11T13:25:04;15.13;;;4.95;;
74945;SDS011;63509;45.250;38.102;2023-02-11T13:27:42;15.07;;;4.60;;
74945;SDS011;63509;45.250;38.102;2023-02-11T13:30:32;5.95;;;3.60;;
74945;SDS011;63509;45.250;38.102;2023-02-11T13:33:01;8.88;;;4.75;;
74945;SDS011;63509;45.250;38.102;2023-02-11T13:35:29;7.80;;;3.97;;
74945;SDS011;63509;45.250;38.102;2023-02-11T13:38:01;11.85;;;5.10;;
74945;SDS011;63509;45.250;38.102;2023-02-11T13:40:36;7.80;;;4.72;;
74945;SDS011;63509;45.250;38.102;2023-02-11T13:43:05;8.02;;;4.65;;
74945;SDS011;63509;45.250;38.102;2023-02-11T13:45:46;18.73;;;4.35;;
74945;SDS011;63509;45.250;38.102;2023-02-11T13:48:25;6.97;;;4.35;;
74945;SDS011;63509;45.250;38.102;2023-02-11T13:51:07;7.18;;;4.40;;
74945;SDS011;63509;45.250;38.102;2023-02-11T13:53:48;11.43;;;4.78;;
74945;SDS011;63509;45.250;38.102;2023-02-11T13:56:27;9.07;;;4.90;;
74945;SDS011;63509;45.250;38.102;2023-02-11T13:59:06;8.63;;;3.70;;
74945;SDS011;63509;45.250;38.102;2023-02-11T14:04:35;8.38;;;3.72;;
74945;SDS011;63509;45.250;38.102;2023-02-11T14:21:11;17.17;;;5.10;;
74945;SDS011;63509;45.250;38.102;2023-02-11T14:23:40;9.15;;;5.05;;
74945;SDS011;63509;45.250;38.102;2023-02-11T14:28:46;21.77;;;5.63;;
74945;SDS011;63509;45.250;38.102;2023-02-11T14:31:26;11.32;;;4.90;;
74945;SDS011;63509;45.250;38.102;2023-02-11T14:37:10;13.95;;;5.95;;
74945;SDS011;63509;45.250;38.102;2023-02-11T14:42:31;13.10;;;4.82;;
74945;SDS011;63509;45.250;38.102;2023-02-11T14:45:01;20.55;;;5.22;;
74945;SDS011;63509;45.250;38.102;2023-02-11T14:47:34;18.17;;;4.90;;
74945;SDS011;63509;45.250;38.102;2023-02-11T14:50:06;12.35;;;5.03;;
74945;SDS011;63509;45.250;38.102;2023-02-11T14:52:40;15.73;;;6.05;;
74945;SDS011;63509;45.250;38.102;2023-02-11T14:57:33;16.20;;;4.15;;
74945;SDS011;63509;45.250;38.102;2023-02-11T15:00:13;14.45;;;5.97;;
74945;SDS011;63509;45.250;38.102;2023-02-11T15:02:44;11.80;;;5.68;;
74945;SDS011;63509;45.250;38.102;2023-02-11T15:05:21;12.75;;;4.38;;
74945;SDS011;63509;45.250;38.102;2023-02-11T15:07:55;17.48;;;5.00;;
74945;SDS011;63509;45.250;38.102;2023-02-11T15:10:34;21.52;;;6.60;;
74945;SDS011;63509;45.250;38.102;2023-02-11T15:13:05;12.52;;;5.82;;
74945;SDS011;63509;45.250;38.102;2023-02-11T15:15:32;16.08;;;7.30;;
74945;SDS011;63509;45.250;38.102;2023-02-11T15:18:02;11.57;;;4.95;;
74945;SDS011;63509;45.250;38.102;2023-02-11T15:20:31;11.30;;;6.40;;
74945;SDS011;63509;45.250;38.102;2023-02-11T15:23:01;14.52;;;6.03;;
74945;SDS011;63509;45.250;38.102;2023-02-11T15:25:32;27.80;;;7.43;;
74945;SDS011;63509;45.250;38.102;2023-02-11T15:28:00;29.50;;;7.25;;
74945;SDS011;63509;45.250;38.102;2023-02-11T15:30:29;13.82;;;6.70;;
74945;SDS011;63509;45.250;38.102;2023-02-11T15:32:59;22.40;;;8.27;;
74945;SDS011;63509;45.250;38.102;2023-02-11T15:35:28;20.73;;;7.22;;
74945;SDS011;63509;45.250;38.102;2023-02-11T15:38:12;16.95;;;8.65;;
74945;SDS011;63509;45.250;38.102;2023-02-11T15:40:38;33.72;;;12.18;;
74945;SDS011;63509;45.250;38.102;2023-02-11T15:43:05;24.40;;;8.75;;
74945;SDS011;63509;45.250;38.102;2023-02-11T15:45:33;15.23;;;6.50;;
74945;SDS011;63509;45.250;38.102;2023-02-11T15:48:10;15.32;;;7.25;;
74945;SDS011;63509;45.250;38.102;2023-02-11T15:50:39;33.17;;;7.88;;
74945;SDS011;63509;45.250;38.102;2023-02-11T15:55:49;24.77;;;7.32;;
74945;SDS011;63509;45.250;38.102;2023-02-11T15:58:17;27.92;;;9.07;;
74945;SDS011;63509;45.250;38.102;2023-02-11T16:00:45;12.05;;;5.95;;
74945;SDS011;63509;45.250;38.102;2023-02-11T16:03:20;19.35;;;8.20;;
74945;SDS011;63509;45.250;38.102;2023-02-11T16:05:48;27.60;;;7.70;;
74945;SDS011;63509;45.250;38.102;2023-02-11T16:10:55;33.15;;;7.65;;
74945;SDS011;63509;45.250;38.102;2023-02-11T16:13:42;17.83;;;6.90;;
74945;SDS011;63509;45.250;38.102;2023-02-11T16:16:17;17.40;;;8.38;;
74945;SDS011;63509;45.250;38.102;2023-02-11T16:18:49;34.67;;;9.07;;
74945;SDS011;63509;45.250;38.102;2023-02-11T16:21:16;15.73;;;9.02;;
74945;SDS011;63509;45.250;38.102;2023-02-11T16:23:48;16.23;;;8.82;;
74945;SDS011;63509;45.250;38.102;2023-02-11T16:26:25;16.25;;;9.60;;
74945;SDS011;63509;45.250;38.102;2023-02-11T16:29:05;15.88;;;9.45;;
74945;SDS011;63509;45.250;38.102;2023-02-11T16:31:35;18.02;;;9.00;;
74945;SDS011;63509;45.250;38.102;2023-02-11T16:36:46;15.98;;;7.63;;
74945;SDS011;63509;45.250;38.102;2023-02-11T16:39:12;18.33;;;9.38;;
74945;SDS011;63509;45.250;38.102;2023-02-11T16:41:38;24.17;;;8.57;;
74945;SDS011;63509;45.250;38.102;2023-02-11T16:44:05;17.90;;;10.07;;
74945;SDS011;63509;45.250;38.102;2023-02-11T16:46:31;18.00;;;10.30;;
74945;SDS011;63509;45.250;38.102;2023-02-11T16:49:07;18.30;;;8.55;;
74945;SDS011;63509;45.250;38.102;2023-02-11T16:51:39;17.05;;;8.68;;
74945;SDS011;63509;45.250;38.102;2023-02-11T16:54:09;28.75;;;10.25;;
74945;SDS011;63509;45.250;38.102;2023-02-11T16:56:39;18.60;;;9.45;;
74945;SDS011;63509;45.250;38.102;2023-02-11T16:59:05;23.27;;;9.27;;
74945;SDS011;63509;45.250;38.102;2023-02-11T17:01:31;21.80;;;10.30;;
74945;SDS011;63509;45.250;38.102;2023-02-11T17:03:58;19.45;;;10.35;;
74945;SDS011;63509;45.250;38.102;2023-02-11T17:06:24;20.33;;;9.25;;
74945;SDS011;63509;45.250;38.102;2023-02-11T17:08:52;22.17;;;10.68;;
74945;SDS011;63509;45.250;38.102;2023-02-11T17:11:18;20.77;;;10.20;;
74945;SDS011;63509;45.250;38.102;2023-02-11T17:13:44;19.42;;;9.55;;
74945;SDS011;63509;45.250;38.102;2023-02-11T17:16:14;25.73;;;10.10;;